メインページ
METAR-TAF:

METAR-TAF

空港 :

メヘラーバード国際空港

テヘラン, イラン

緯度: 35-41N, 経度: 051-21E, 海抜: 1204m

現時点の気象観測

当レポートは13分前の06:00(UTC)に作成
の風 6kt
気温 8°C
湿度 42%
気圧 1018 hPa
視程10km以上
高度3000ftの雲はほとんどない
高度10000ftの雲は散在している
高度19000ftの千切れ雲あり

METAR: OIII 210600Z 17006KT 9999 FEW030 SCT100 BKN190 08/M04 Q1017 A3005 NOSIG

時間: 09:43 (06:13 UTC)

予報

当レポートは43分前の05:30(UTC)に作成
予報は21日の 06時(UTC)から 22日の 12時(UTC)まで有効
西の風 8kt
視程: 8000m
高度3500ftの雲はほとんどない
高度10000ftの千切れ雲あり
21日の 08時(UTC)から 21日の 09時(UTC)まで徐々に
高度3500ftの雲はほとんどない, 塔状積雲.
高度4000ftの雲は散在している
高度10000ftの雲は散在している
21日の 09時(UTC)から 21日の 15時(UTC)まで一時的に
西の風 18kt
高度3500ftの雲はほとんどない, 積乱雲.
高度4000ftの雲は散在している
高度10000ftの千切れ雲あり
にわか雨
21日の 15時(UTC)から 21日の 16時(UTC)まで徐々に
高度3500ftの雲はほとんどない
高度10000ftの雲は散在している

TAF: OIII 210530Z 2106/2212 27008KT 8000 FEW035 BKN100 BECMG 2108/2109 FEW035TCU SCT040 SCT100 TEMPO 2109/2115 27018KT SHRA FEW035CB SCT040 BKN100 BECMG 2115/2116 FEW035 SCT100

4,000以上の空港の気象観測と天気予報(METAR報とTAF報)

利用可能な観測所は地図上に黄色い丸と赤い丸で示す。

丸の上にカーソルを重ねると観測所名を参照できる。

次にクリックすると気象観測と天気予報を参照できる。

マップの切り替え:黒色「×」印の緑ボタンをクリックして拡大、「-」印の緑ボタンをクリックして縮小、緑色の三角印をクリックして隣りの地図に切り替え


METAR-TAF: